Dayton, Ohio
Current Conditions -  °F | °C
As of 9:58 AM on Wednesday 22 Oct 2014 (Local Time) from KFFO Reporting Station
Overcast Overcast  
Wind Chill: 40°   Ceiling: 2600
Heat Index: 45°   Visibility: 10mi
Dew Point: 41°   Wind: 9mph
Humidity: 85%   Direction: 350°N
Pressure: 30.29"   Gusts: NA
Location:  39.76°N, 84.19°W
Report Text: KFFO 221358Z AUTO 35008KT 10SM OVC026 07/05 A3029 RMK AO2 CIG 009 RWY23R SLP264 T00710048
Loading
Personal Weather Stations






























Interactive Weather Map New forecast layout! Learn more

10-Day Weather Forecast

Advertisements
Track Severe Weather on mobile